createdAt,value
2019-06-10T00:01:36.611Z,8.03
2019-06-10T00:04:08.647Z,6.90
2019-06-10T00:06:37.277Z,6.05
2019-06-10T00:09:08.180Z,10.53
2019-06-10T00:11:37.872Z,6.60
2019-06-10T00:14:07.509Z,5.80
2019-06-10T00:16:37.439Z,8.23
2019-06-10T00:19:09.403Z,6.05
2019-06-10T00:21:38.215Z,6.05
2019-06-10T00:24:08.571Z,6.97
2019-06-10T00:26:38.522Z,7.80
2019-06-10T00:29:09.714Z,7.95
2019-06-10T00:31:41.586Z,6.75
2019-06-10T00:34:12.417Z,7.25
2019-06-10T00:36:41.760Z,8.00
2019-06-10T00:39:13.538Z,7.83
2019-06-10T00:41:42.775Z,6.72
2019-06-10T00:44:12.821Z,6.28
2019-06-10T00:46:42.649Z,5.28
2019-06-10T00:49:14.603Z,6.67
2019-06-10T00:51:43.410Z,7.25
2019-06-10T00:54:15.690Z,5.78
2019-06-10T00:56:46.731Z,6.37
2019-06-10T00:59:16.405Z,9.30
2019-06-10T01:01:45.979Z,6.80
2019-06-10T01:04:16.289Z,9.25
2019-06-10T01:06:46.082Z,8.00
2019-06-10T01:09:15.608Z,4.92
2019-06-10T01:11:45.092Z,7.62
2019-06-10T01:14:15.492Z,7.37
2019-06-10T01:16:46.460Z,5.12
2019-06-10T01:19:16.095Z,5.97
2019-06-10T01:21:45.473Z,6.42
2019-06-10T01:24:14.966Z,7.47
2019-06-10T01:26:45.625Z,7.85
2019-06-10T01:29:15.603Z,7.67
2019-06-10T01:31:46.148Z,6.37
2019-06-10T01:34:15.715Z,6.22
2019-06-10T01:36:45.185Z,9.23
2019-06-10T01:39:16.414Z,8.03
2019-06-10T01:41:46.000Z,8.40
2019-06-10T01:44:16.482Z,9.95
2019-06-10T01:46:46.809Z,11.08
2019-06-10T01:49:18.039Z,8.15
2019-06-10T01:51:47.801Z,11.53
2019-06-10T01:54:18.470Z,13.35
2019-06-10T01:56:48.213Z,6.83
2019-06-10T01:59:18.680Z,8.38
2019-06-10T02:01:51.738Z,10.28
2019-06-10T02:04:22.243Z,9.10
2019-06-10T02:06:52.121Z,14.55
2019-06-10T02:09:23.101Z,10.98
2019-06-10T02:11:53.337Z,8.43
2019-06-10T02:14:24.303Z,8.00
2019-06-10T02:16:54.645Z,12.43
2019-06-10T02:19:24.029Z,12.25
2019-06-10T02:21:53.565Z,7.92
2019-06-10T02:24:23.631Z,9.15
2019-06-10T02:26:52.985Z,9.48
2019-06-10T02:29:23.733Z,9.13
2019-06-10T02:31:53.323Z,10.60
2019-06-10T02:34:26.993Z,11.57
2019-06-10T02:36:53.926Z,10.20
2019-06-10T02:39:32.927Z,11.03
2019-06-10T02:41:56.020Z,11.60
2019-06-10T02:44:32.583Z,9.93
2019-06-10T02:46:56.788Z,10.70
2019-06-10T02:49:46.242Z,9.35
2019-06-10T02:51:57.695Z,12.82
2019-06-10T02:54:31.371Z,7.83
2019-06-10T02:56:58.364Z,10.25
2019-06-10T02:59:31.637Z,12.25
2019-06-10T03:01:59.005Z,9.80
2019-06-10T03:04:32.767Z,8.65
2019-06-10T03:06:59.531Z,10.30
2019-06-10T03:09:31.846Z,10.53
2019-06-10T03:12:03.877Z,12.40
2019-06-10T03:14:32.860Z,11.33
2019-06-10T03:17:12.361Z,12.13
2019-06-10T03:19:47.801Z,12.65
2019-06-10T03:22:13.114Z,11.68
2019-06-10T03:24:42.617Z,12.33
2019-06-10T03:27:12.625Z,12.35
2019-06-10T03:29:42.564Z,13.68
2019-06-10T03:32:15.216Z,16.32
2019-06-10T03:34:47.254Z,12.28
2019-06-10T03:37:14.582Z,15.85
2019-06-10T03:39:44.062Z,10.48
2019-06-10T03:42:13.588Z,13.70
2019-06-10T03:44:43.105Z,17.60
2019-06-10T03:47:12.688Z,13.18
2019-06-10T03:49:52.328Z,14.20
2019-06-10T03:52:13.280Z,17.85
2019-06-10T03:54:43.374Z,13.88
2019-06-10T03:57:13.009Z,14.87
2019-06-10T03:59:42.460Z,13.40
2019-06-10T04:02:12.785Z,17.15
2019-06-10T04:04:42.973Z,14.07
2019-06-10T04:07:14.241Z,16.70
2019-06-10T04:09:43.826Z,13.65
2019-06-10T04:12:13.316Z,14.87
2019-06-10T04:14:42.758Z,17.70
2019-06-10T04:17:13.048Z,15.18
2019-06-10T04:19:42.494Z,16.62
2019-06-10T04:22:13.024Z,23.07
2019-06-10T04:24:43.115Z,18.10
2019-06-10T04:27:12.831Z,20.97
2019-06-10T04:29:42.352Z,18.95
2019-06-10T04:32:12.310Z,16.87
2019-06-10T04:34:43.290Z,17.73
2019-06-10T04:37:13.012Z,21.10
2019-06-10T04:39:42.820Z,19.52
2019-06-10T04:42:12.972Z,20.25
2019-06-10T04:44:42.881Z,19.82
2019-06-10T04:47:12.450Z,19.65
2019-06-10T04:49:42.879Z,18.98
2019-06-10T04:52:12.741Z,20.95
2019-06-10T04:54:42.305Z,20.90
2019-06-10T04:57:12.780Z,20.77
2019-06-10T04:59:42.886Z,20.55
2019-06-10T05:02:12.888Z,22.67
2019-06-10T05:04:42.696Z,25.35
2019-06-10T05:07:12.551Z,21.33
2019-06-10T05:09:42.500Z,24.55
2019-06-10T05:12:12.180Z,25.45
2019-06-10T05:14:43.234Z,25.37
2019-06-10T05:17:14.025Z,25.55
2019-06-10T05:19:43.521Z,24.72
2019-06-10T05:22:12.958Z,25.57
2019-06-10T05:24:42.539Z,26.50
2019-06-10T05:27:12.552Z,24.87
2019-06-10T05:29:42.268Z,28.38
2019-06-10T05:32:12.743Z,29.82
2019-06-10T05:34:43.723Z,24.63
2019-06-10T05:37:14.791Z,28.05
2019-06-10T05:39:44.177Z,29.70
2019-06-10T05:42:13.881Z,26.87
2019-06-10T05:44:43.309Z,28.85
2019-06-10T05:47:12.886Z,26.95
2019-06-10T05:49:43.112Z,29.37
2019-06-10T05:52:12.704Z,25.02
2019-06-10T05:54:43.131Z,27.22
2019-06-10T05:57:12.883Z,25.75
2019-06-10T05:59:43.278Z,25.62
2019-06-10T06:02:12.950Z,25.30
2019-06-10T06:04:44.063Z,30.35
2019-06-10T06:07:13.671Z,22.75
2019-06-10T06:09:43.221Z,24.27
2019-06-10T06:12:14.235Z,24.87
2019-06-10T06:14:44.093Z,27.52
2019-06-10T06:17:16.661Z,27.93
2019-06-10T06:19:44.740Z,26.05
2019-06-10T06:22:14.221Z,23.80
2019-06-10T06:24:43.653Z,27.98
2019-06-10T06:27:13.209Z,21.87
2019-06-10T06:29:43.240Z,26.50
2019-06-10T06:32:13.220Z,29.42
2019-06-10T06:34:43.185Z,26.37
2019-06-10T06:37:12.853Z,22.73
2019-06-10T06:39:42.850Z,25.10
2019-06-10T06:42:12.776Z,22.93
2019-06-10T06:44:43.325Z,25.45
2019-06-10T06:47:13.260Z,22.73
2019-06-10T06:49:42.976Z,23.20
2019-06-10T06:52:12.837Z,24.82
2019-06-10T06:54:42.705Z,23.35
2019-06-10T06:57:13.042Z,23.47
2019-06-10T06:59:43.298Z,24.25
2019-06-10T07:02:12.927Z,23.35
2019-06-10T07:04:43.310Z,22.58
2019-06-10T07:07:13.241Z,20.95
2019-06-10T07:09:43.385Z,22.82
2019-06-10T07:12:13.144Z,22.77
2019-06-10T07:14:44.954Z,20.12
2019-06-10T07:17:13.833Z,22.60
2019-06-10T07:19:45.723Z,21.95
2019-06-10T07:22:16.218Z,19.73
2019-06-10T07:24:47.489Z,18.82
2019-06-10T07:27:16.403Z,22.20
2019-06-10T07:29:47.284Z,20.02
2019-06-10T07:32:16.934Z,20.37
2019-06-10T07:34:47.009Z,21.10
2019-06-10T07:37:16.448Z,22.13
2019-06-10T07:39:46.198Z,22.67
2019-06-10T07:42:16.053Z,22.05
2019-06-10T07:44:45.655Z,21.23
2019-06-10T07:47:15.060Z,21.40
2019-06-10T07:49:45.619Z,23.55
2019-06-10T07:52:19.453Z,23.87
2019-06-10T07:54:46.384Z,21.65
2019-06-10T07:57:15.826Z,22.17
2019-06-10T07:59:46.048Z,23.07
2019-06-10T08:02:15.783Z,21.55
2019-06-10T08:04:46.100Z,25.35
2019-06-10T08:07:16.223Z,20.52
2019-06-10T08:09:45.882Z,20.35
2019-06-10T08:12:15.874Z,21.12
2019-06-10T08:14:45.742Z,20.62
2019-06-10T08:17:15.369Z,21.00
2019-06-10T08:19:49.596Z,24.57
2019-06-10T08:22:29.852Z,22.25
2019-06-10T08:24:47.838Z,22.30
2019-06-10T08:27:22.567Z,23.10
2019-06-10T08:30:13.685Z,21.12
2019-06-10T08:32:24.521Z,19.15
2019-06-10T08:34:53.564Z,19.02
2019-06-10T08:37:23.433Z,18.60
2019-06-10T08:39:53.281Z,19.20
2019-06-10T08:42:24.003Z,18.05
2019-06-10T08:44:53.565Z,17.00
2019-06-10T08:47:23.071Z,18.55
2019-06-10T08:49:53.168Z,17.02
2019-06-10T08:52:23.856Z,17.80
2019-06-10T08:54:54.459Z,17.07
2019-06-10T08:57:24.380Z,17.37
2019-06-10T08:59:53.835Z,19.85
2019-06-10T09:02:23.326Z,16.65
2019-06-10T09:04:53.561Z,16.32
2019-06-10T09:07:23.958Z,16.27
2019-06-10T09:09:54.540Z,17.85
2019-06-10T09:12:32.811Z,17.30
2019-06-10T09:14:56.196Z,16.40
2019-06-10T09:17:25.656Z,17.57
2019-06-10T09:19:55.174Z,16.30
2019-06-10T09:22:24.624Z,14.23
2019-06-10T09:24:56.328Z,14.80
2019-06-10T09:27:27.180Z,16.10
2019-06-10T09:29:56.861Z,15.10
2019-06-10T09:32:26.430Z,17.52
2019-06-10T09:34:57.629Z,14.07
2019-06-10T09:37:27.002Z,14.35
2019-06-10T09:39:59.561Z,15.48
2019-06-10T09:42:27.708Z,13.98
2019-06-10T09:44:57.192Z,13.93
2019-06-10T09:47:27.011Z,12.90
2019-06-10T09:49:56.470Z,13.20
2019-06-10T09:52:25.897Z,14.18
2019-06-10T09:54:56.675Z,14.53
2019-06-10T09:57:26.466Z,16.30
2019-06-10T09:59:56.676Z,14.25
2019-06-10T10:02:26.235Z,15.93
2019-06-10T10:04:58.301Z,14.73
2019-06-10T10:07:26.887Z,16.02
2019-06-10T10:09:57.268Z,15.70
2019-06-10T10:12:26.981Z,16.30
2019-06-10T10:14:56.543Z,14.28
2019-06-10T10:17:26.002Z,15.98
2019-06-10T10:19:57.082Z,14.40
2019-06-10T10:22:27.602Z,14.68
2019-06-10T10:24:57.139Z,14.05
2019-06-10T10:27:26.566Z,13.83
2019-06-10T10:29:57.404Z,15.90
2019-06-10T10:32:26.875Z,13.22
2019-06-10T10:34:56.638Z,13.05
2019-06-10T10:37:27.417Z,13.80
2019-06-10T10:39:56.850Z,12.45
2019-06-10T10:42:41.665Z,13.75
2019-06-10T10:44:59.225Z,14.05
2019-06-10T10:47:28.697Z,12.58
2019-06-10T10:49:58.162Z,12.43
2019-06-10T10:52:27.593Z,13.45
2019-06-10T10:54:57.039Z,13.45
2019-06-10T10:57:26.530Z,12.10
2019-06-10T10:59:56.320Z,12.73
2019-06-10T11:02:25.907Z,13.40
2019-06-10T11:04:56.981Z,18.50
2019-06-10T11:07:26.229Z,12.28
2019-06-10T11:09:56.832Z,12.68
2019-06-10T11:12:27.820Z,12.47
2019-06-10T11:15:01.753Z,12.13
2019-06-10T11:17:28.312Z,15.25
2019-06-10T11:19:57.861Z,12.68
2019-06-10T11:22:27.494Z,15.32
2019-06-10T11:24:57.723Z,13.95
2019-06-10T11:27:28.429Z,12.98
2019-06-10T11:29:59.197Z,12.78
2019-06-10T11:32:28.766Z,15.35
2019-06-10T11:34:58.705Z,13.40
2019-06-10T11:37:28.145Z,13.22
2019-06-10T11:39:57.468Z,14.13
2019-06-10T11:42:26.931Z,16.65
2019-06-10T11:44:59.921Z,13.48
2019-06-10T11:47:33.023Z,14.07
2019-06-10T11:50:03.580Z,13.58
2019-06-10T11:52:33.609Z,18.12
2019-06-10T11:55:14.265Z,12.75
2019-06-10T11:57:35.575Z,14.70
2019-06-10T12:00:14.130Z,14.65
2019-06-10T12:02:42.337Z,14.23
2019-06-10T12:05:13.060Z,13.83
2019-06-10T12:07:43.611Z,13.32
2019-06-10T12:10:14.423Z,12.70
2019-06-10T12:12:44.019Z,12.50
2019-06-10T12:15:13.615Z,13.20
2019-06-10T12:17:50.884Z,11.90
2019-06-10T12:20:14.346Z,12.78
2019-06-10T12:22:44.768Z,11.97
2019-06-10T12:25:30.805Z,11.68
2019-06-10T12:27:47.382Z,13.70
2019-06-10T12:30:17.213Z,13.72
2019-06-10T12:32:46.752Z,11.70
2019-06-10T12:35:16.632Z,12.40
2019-06-10T12:37:46.354Z,12.40
2019-06-10T12:40:16.197Z,15.05
2019-06-10T12:42:45.769Z,11.48
2019-06-10T12:45:15.405Z,12.53
2019-06-10T12:47:45.054Z,11.93
2019-06-10T12:50:14.654Z,13.72
2019-06-10T12:52:44.205Z,11.90
2019-06-10T12:55:14.371Z,12.58
2019-06-10T12:57:44.226Z,11.73
2019-06-10T13:00:20.597Z,14.87
2019-06-10T13:02:45.420Z,13.32
2019-06-10T13:05:14.890Z,13.53
2019-06-10T13:07:44.435Z,12.13
2019-06-10T13:10:15.651Z,12.80
2019-06-10T13:12:48.795Z,11.88
2019-06-10T13:15:16.602Z,11.75
2019-06-10T13:17:46.189Z,12.33
2019-06-10T13:20:15.750Z,13.58
2019-06-10T13:22:45.131Z,12.25
2019-06-10T13:25:14.559Z,15.83
2019-06-10T13:27:44.244Z,12.03
2019-06-10T13:30:13.840Z,12.80
2019-06-10T13:32:43.525Z,11.63
2019-06-10T13:35:13.713Z,12.13
2019-06-10T13:37:43.212Z,13.08
2019-06-10T13:40:14.131Z,13.58
2019-06-10T13:42:43.703Z,11.55
2019-06-10T13:45:13.300Z,13.28
2019-06-10T13:47:43.779Z,11.00
2019-06-10T13:50:14.443Z,13.08
2019-06-10T13:52:44.346Z,13.28
2019-06-10T13:55:13.906Z,11.63
2019-06-10T13:57:44.905Z,11.55
2019-06-10T14:00:22.854Z,11.43
2019-06-10T14:02:52.262Z,14.53
2019-06-10T14:05:22.619Z,11.40
2019-06-10T14:07:55.014Z,10.53
2019-06-10T14:10:23.506Z,14.35
2019-06-10T14:12:52.943Z,11.85
2019-06-10T14:15:23.109Z,11.20
2019-06-10T14:17:52.878Z,14.93
2019-06-10T14:20:23.469Z,12.90
2019-06-10T14:22:53.115Z,11.57
2019-06-10T14:25:23.313Z,10.98
2019-06-10T14:27:53.370Z,11.68
2019-06-10T14:30:23.140Z,12.13
2019-06-10T14:32:53.251Z,13.25
2019-06-10T14:35:23.030Z,12.15
2019-06-10T14:37:53.536Z,13.60
2019-06-10T14:40:25.288Z,11.45
2019-06-10T14:42:54.062Z,12.03
2019-06-10T14:45:23.599Z,12.68
2019-06-10T14:47:54.733Z,10.35
2019-06-10T14:50:24.650Z,13.83
2019-06-10T14:52:54.484Z,14.07
2019-06-10T14:55:23.914Z,14.53
2019-06-10T14:57:53.558Z,14.30
2019-06-10T15:00:23.755Z,11.83
2019-06-10T15:02:54.055Z,11.68
2019-06-10T15:05:23.944Z,11.60
2019-06-10T15:07:53.437Z,12.05
2019-06-10T15:10:23.494Z,12.20
2019-06-10T15:12:53.221Z,15.18
2019-06-10T15:15:23.745Z,13.65
2019-06-10T15:17:54.073Z,12.13
2019-06-10T15:20:23.736Z,12.58
2019-06-10T15:22:53.143Z,13.75
2019-06-10T15:25:28.007Z,11.30
2019-06-10T15:27:53.804Z,11.78
2019-06-10T15:30:27.117Z,12.43
2019-06-10T15:32:54.732Z,12.43
2019-06-10T15:35:24.599Z,11.30
2019-06-10T15:37:54.371Z,13.68
2019-06-10T15:40:23.952Z,10.93
2019-06-10T15:42:53.516Z,11.97
2019-06-10T15:45:23.154Z,14.07
2019-06-10T15:47:53.227Z,13.40
2019-06-10T15:50:23.479Z,11.75
2019-06-10T15:52:54.142Z,12.75
2019-06-10T15:55:49.127Z,11.97
2019-06-10T15:57:55.220Z,12.25
2019-06-10T16:00:29.084Z,13.40
2019-06-10T16:02:57.075Z,11.63
2019-06-10T16:05:27.116Z,11.95
2019-06-10T16:07:56.646Z,12.58
2019-06-10T16:10:32.549Z,14.45
2019-06-10T16:13:03.397Z,12.63
2019-06-10T16:15:33.172Z,11.65
2019-06-10T16:18:03.075Z,12.95
2019-06-10T16:20:32.757Z,14.23
2019-06-10T16:23:07.974Z,12.00
2019-06-10T16:25:39.179Z,17.30
2019-06-10T16:28:08.692Z,15.08
2019-06-10T16:30:38.115Z,13.05
2019-06-10T16:33:07.604Z,11.55
2019-06-10T16:35:37.260Z,14.47
2019-06-10T16:38:06.595Z,13.70
2019-06-10T16:40:36.050Z,15.32
2019-06-10T16:43:05.533Z,12.28
2019-06-10T16:45:35.115Z,17.23
2019-06-10T16:48:04.601Z,14.10
2019-06-10T16:50:34.294Z,13.30
2019-06-10T16:53:03.899Z,15.50
2019-06-10T16:55:33.528Z,17.60
2019-06-10T16:58:03.293Z,14.15
2019-06-10T17:00:34.904Z,14.53
2019-06-10T17:03:04.970Z,15.43
2019-06-10T17:05:34.782Z,12.25
2019-06-10T17:08:04.612Z,14.23
2019-06-10T17:10:34.503Z,14.50
2019-06-10T17:13:10.307Z,18.73
2019-06-10T17:15:42.236Z,14.47
2019-06-10T17:18:13.112Z,11.53
2019-06-10T17:20:43.123Z,15.03
2019-06-10T17:23:28.924Z,12.78
2019-06-10T17:25:56.598Z,14.25
2019-06-10T17:28:30.718Z,16.93
2019-06-10T17:30:58.873Z,15.30
2019-06-10T17:33:30.498Z,14.58
2019-06-10T17:36:03.080Z,14.30
2019-06-10T17:38:32.073Z,14.58
2019-06-10T17:41:03.030Z,14.15
2019-06-10T17:43:34.434Z,18.85
2019-06-10T17:46:04.497Z,17.85
2019-06-10T17:48:34.259Z,18.10
2019-06-10T17:51:04.420Z,16.35
2019-06-10T17:53:35.042Z,13.03
2019-06-10T17:56:05.274Z,16.80
2019-06-10T17:58:50.228Z,14.25
2019-06-10T18:01:06.881Z,16.62
2019-06-10T18:03:39.756Z,16.87
2019-06-10T18:06:08.119Z,15.45
2019-06-10T18:08:40.746Z,20.48
2019-06-10T18:11:12.676Z,23.90
2019-06-10T18:13:43.033Z,25.48
2019-06-10T18:16:13.412Z,29.60
2019-06-10T18:18:43.054Z,29.40
2019-06-10T18:21:13.193Z,43.87
2019-06-10T18:23:43.706Z,33.65
2019-06-10T18:26:13.469Z,64.97
2019-06-10T18:29:00.918Z,55.05
2019-06-10T18:31:18.230Z,54.67
2019-06-10T18:33:45.956Z,34.43
2019-06-10T18:36:15.619Z,29.10
2019-06-10T18:38:45.369Z,27.27
2019-06-10T18:41:16.630Z,18.75
2019-06-10T18:43:46.424Z,16.93
2019-06-10T18:46:15.997Z,21.50
2019-06-10T18:48:45.743Z,17.52
2019-06-10T18:51:15.463Z,21.25
2019-06-10T18:53:45.104Z,21.73
2019-06-10T18:56:14.694Z,15.18
2019-06-10T18:58:44.345Z,15.35
2019-06-10T19:01:13.890Z,16.57
2019-06-10T19:03:43.656Z,20.77
2019-06-10T19:06:13.320Z,20.35
2019-06-10T19:08:44.259Z,17.48
2019-06-10T19:11:15.346Z,22.32
2019-06-10T19:13:45.113Z,17.17
2019-06-10T19:16:15.546Z,25.20
2019-06-10T19:18:45.277Z,17.45
2019-06-10T19:21:14.909Z,25.68
2019-06-10T19:23:45.236Z,19.32
2019-06-10T19:26:14.911Z,16.02
2019-06-10T19:28:45.530Z,16.30
2019-06-10T19:31:15.674Z,18.73
2019-06-10T19:33:45.637Z,20.23
2019-06-10T19:36:15.322Z,20.02
2019-06-10T19:38:45.070Z,18.57
2019-06-10T19:41:15.431Z,19.48
2019-06-10T19:43:45.623Z,15.45
2019-06-10T19:46:15.279Z,20.70
2019-06-10T19:48:56.676Z,16.27
2019-06-10T19:51:17.133Z,17.60
2019-06-10T19:53:46.790Z,21.75
2019-06-10T19:56:16.647Z,17.80
2019-06-10T19:58:46.610Z,20.25
2019-06-10T20:01:17.358Z,22.22
2019-06-10T20:03:47.161Z,18.57
2019-06-10T20:06:16.763Z,20.82
2019-06-10T20:08:46.505Z,22.77
2019-06-10T20:11:16.078Z,22.17
2019-06-10T20:13:46.856Z,21.57
2019-06-10T20:16:16.761Z,24.70
2019-06-10T20:18:48.851Z,23.40
2019-06-10T20:21:17.598Z,23.50
2019-06-10T20:23:47.831Z,21.70
2019-06-10T20:26:19.831Z,23.20
2019-06-10T20:28:54.679Z,21.00
2019-06-10T20:31:22.162Z,22.13
2019-06-10T20:33:52.344Z,21.75
2019-06-10T20:36:26.587Z,19.85
2019-06-10T20:38:53.620Z,23.57
2019-06-10T20:41:23.616Z,21.60
2019-06-10T20:43:55.521Z,29.32
2019-06-10T20:46:24.778Z,21.42
2019-06-10T20:48:54.717Z,29.02
2019-06-10T20:51:27.242Z,21.60
2019-06-10T20:53:58.106Z,22.80
2019-06-10T20:56:27.806Z,23.87
2019-06-10T20:58:57.358Z,22.52
2019-06-10T21:01:26.983Z,20.50
2019-06-10T21:03:56.758Z,20.77
2019-06-10T21:06:26.290Z,22.85
2019-06-10T21:08:57.073Z,26.45
2019-06-10T21:11:26.728Z,21.95
2019-06-10T21:13:56.315Z,20.80
2019-06-10T21:16:25.877Z,24.52
2019-06-10T21:18:55.849Z,21.95
2019-06-10T21:21:25.500Z,22.73
2019-06-10T21:23:55.156Z,25.35
2019-06-10T21:26:25.712Z,23.00
2019-06-10T21:28:55.396Z,26.57
2019-06-10T21:31:25.212Z,22.77
2019-06-10T21:33:56.082Z,25.57
2019-06-10T21:36:26.189Z,25.90
2019-06-10T21:38:56.105Z,21.42
2019-06-10T21:41:26.046Z,25.40
2019-06-10T21:43:59.460Z,23.52
2019-06-10T21:46:28.567Z,23.22
2019-06-10T21:48:59.648Z,25.50
2019-06-10T21:51:31.663Z,25.75
2019-06-10T21:54:02.965Z,23.52
2019-06-10T21:56:37.569Z,27.15
2019-06-10T21:59:07.602Z,24.65
2019-06-10T22:01:38.063Z,22.25
2019-06-10T22:04:08.338Z,21.82
2019-06-10T22:06:37.920Z,26.23
2019-06-10T22:09:07.761Z,24.23
2019-06-10T22:11:38.177Z,22.35
2019-06-10T22:14:08.878Z,23.18
2019-06-10T22:16:38.839Z,23.95
2019-06-10T22:19:09.368Z,22.90
2019-06-10T22:21:39.579Z,24.77
2019-06-10T22:24:09.919Z,22.87
2019-06-10T22:26:42.497Z,23.47
2019-06-10T22:29:14.402Z,24.72
2019-06-10T22:31:45.237Z,23.22
2019-06-10T22:34:15.334Z,23.50
2019-06-10T22:36:45.504Z,23.90
2019-06-10T22:39:16.572Z,22.58
2019-06-10T22:41:48.952Z,30.97
2019-06-10T22:44:19.784Z,24.50
2019-06-10T22:46:52.517Z,23.07
2019-06-10T22:49:24.813Z,22.35
2019-06-10T22:51:57.932Z,24.45
2019-06-10T22:54:27.275Z,25.80
2019-06-10T22:56:58.195Z,28.98
2019-06-10T22:59:28.449Z,27.02
2019-06-10T23:01:58.859Z,26.70
2019-06-10T23:04:29.133Z,24.77
2019-06-10T23:06:59.884Z,25.48
2019-06-10T23:09:30.345Z,26.15
2019-06-10T23:12:03.709Z,28.27
2019-06-10T23:14:33.661Z,27.55
2019-06-10T23:17:03.560Z,26.15
2019-06-10T23:19:33.390Z,26.07
2019-06-10T23:22:03.148Z,25.70
2019-06-10T23:24:32.677Z,26.05
2019-06-10T23:27:03.119Z,33.28
2019-06-10T23:29:33.036Z,26.85
2019-06-10T23:32:06.811Z,26.93
2019-06-10T23:34:33.534Z,26.65
2019-06-10T23:37:03.300Z,27.60
2019-06-10T23:39:33.466Z,25.08
2019-06-10T23:42:04.223Z,26.75
2019-06-10T23:44:34.362Z,29.82
2019-06-10T23:47:04.274Z,29.25
2019-06-10T23:49:34.283Z,27.27
2019-06-10T23:52:05.371Z,27.32
2019-06-10T23:54:35.055Z,26.62
2019-06-10T23:57:06.074Z,31.85
2019-06-10T23:59:36.332Z,25.45
